createdAt,value
2017-07-26T00:02:05.561Z,99.90
2017-07-26T00:04:33.041Z,99.90
2017-07-26T00:07:00.530Z,99.90
2017-07-26T00:09:28.011Z,99.90
2017-07-26T00:11:56.260Z,99.90
2017-07-26T00:14:23.730Z,99.90
2017-07-26T00:16:51.973Z,99.90
2017-07-26T00:19:19.462Z,99.90
2017-07-26T00:21:46.966Z,99.90
2017-07-26T00:24:14.457Z,99.90
2017-07-26T00:26:41.937Z,99.90
2017-07-26T00:29:10.197Z,99.90
2017-07-26T00:31:37.669Z,99.90
2017-07-26T00:34:05.164Z,99.90
2017-07-26T00:36:32.672Z,99.90
2017-07-26T00:39:00.147Z,99.90
2017-07-26T00:41:28.379Z,99.90
2017-07-26T00:43:55.881Z,99.90
2017-07-26T00:46:24.112Z,99.90
2017-07-26T00:48:51.588Z,99.90
2017-07-26T00:51:19.078Z,99.90
2017-07-26T00:53:47.336Z,99.90
2017-07-26T00:56:14.817Z,99.90
2017-07-26T00:58:43.071Z,99.90
2017-07-26T01:01:10.550Z,99.90
2017-07-26T01:03:38.818Z,99.90
2017-07-26T01:06:07.068Z,99.90
2017-07-26T01:08:34.564Z,99.90
2017-07-26T01:11:02.806Z,99.90
2017-07-26T01:13:30.273Z,99.90
2017-07-26T01:15:57.768Z,99.90
2017-07-26T01:18:25.242Z,99.90
2017-07-26T01:20:52.732Z,99.90
2017-07-26T01:23:20.212Z,99.90
2017-07-26T01:25:47.675Z,99.90
2017-07-26T01:28:15.944Z,99.90
2017-07-26T01:30:43.447Z,99.90
2017-07-26T01:33:10.940Z,99.90
2017-07-26T01:35:38.425Z,99.90
2017-07-26T01:38:05.917Z,99.90
2017-07-26T01:40:33.417Z,99.90
2017-07-26T01:43:00.892Z,99.90
2017-07-26T01:45:28.389Z,99.90
2017-07-26T01:47:55.865Z,99.90
2017-07-26T01:50:23.346Z,99.90
2017-07-26T01:52:50.840Z,99.90
2017-07-26T01:55:19.092Z,99.90
2017-07-26T01:57:46.612Z,99.90
2017-07-26T02:00:14.087Z,99.90
2017-07-26T02:02:41.570Z,99.90
2017-07-26T02:05:09.041Z,99.90
2017-07-26T02:07:37.305Z,99.90
2017-07-26T02:10:04.768Z,99.90
2017-07-26T02:12:32.240Z,99.90
2017-07-26T02:15:00.488Z,99.90
2017-07-26T02:17:27.978Z,99.90
2017-07-26T02:19:56.221Z,99.90
2017-07-26T02:22:23.691Z,99.90
2017-07-26T02:24:51.201Z,99.90
2017-07-26T02:27:18.669Z,99.90
2017-07-26T02:29:46.159Z,99.90
2017-07-26T02:32:13.640Z,99.90
2017-07-26T02:34:41.889Z,99.90
2017-07-26T02:37:09.417Z,99.90
2017-07-26T02:39:36.884Z,99.90
2017-07-26T02:42:04.357Z,99.90
2017-07-26T02:44:31.849Z,99.90
2017-07-26T02:47:00.086Z,99.90
2017-07-26T02:49:27.997Z,99.90
2017-07-26T02:51:56.237Z,99.90
2017-07-26T02:54:23.706Z,99.90
2017-07-26T02:56:51.188Z,99.90
2017-07-26T02:59:19.423Z,99.90
2017-07-26T03:01:46.953Z,99.90
2017-07-26T03:04:14.429Z,99.90
2017-07-26T03:06:41.900Z,99.90
2017-07-26T03:09:09.403Z,99.90
2017-07-26T03:11:36.868Z,99.90
2017-07-26T03:14:04.379Z,99.90
2017-07-26T03:16:31.849Z,99.90
2017-07-26T03:18:59.345Z,99.90
2017-07-26T03:21:26.820Z,99.90
2017-07-26T03:23:54.289Z,99.90
2017-07-26T03:26:21.794Z,99.90
2017-07-26T03:28:50.032Z,99.90
2017-07-26T03:31:17.512Z,99.90
2017-07-26T03:33:45.008Z,99.90
2017-07-26T03:36:12.484Z,99.90
2017-07-26T03:38:39.969Z,99.90
2017-07-26T03:41:07.438Z,99.90
2017-07-26T03:43:34.922Z,99.90
2017-07-26T03:46:03.169Z,99.90
2017-07-26T03:48:30.672Z,99.90
2017-07-26T03:50:58.145Z,99.90
2017-07-26T03:53:25.617Z,99.90
2017-07-26T03:55:53.101Z,99.90
2017-07-26T03:58:20.572Z,99.90
2017-07-26T04:00:48.064Z,99.90
2017-07-26T04:03:15.540Z,99.90
2017-07-26T04:05:43.012Z,99.90
2017-07-26T04:08:10.508Z,99.90
2017-07-26T04:10:38.761Z,99.90
2017-07-26T04:13:06.264Z,99.90
2017-07-26T04:15:33.741Z,99.90
2017-07-26T04:18:01.239Z,99.90
2017-07-26T04:20:28.708Z,99.90
2017-07-26T04:22:56.830Z,99.90
2017-07-26T04:25:24.393Z,99.90
2017-07-26T04:27:53.308Z,99.90
2017-07-26T04:30:20.840Z,99.90
2017-07-26T04:32:48.316Z,99.90
2017-07-26T04:35:17.777Z,99.90
2017-07-26T04:37:46.819Z,99.90
2017-07-26T04:40:15.094Z,99.90
2017-07-26T04:42:42.935Z,99.90
2017-07-26T04:45:11.241Z,99.90
2017-07-26T04:47:39.661Z,99.90
2017-07-26T04:50:08.600Z,99.90
2017-07-26T04:52:37.475Z,99.90
2017-07-26T04:55:05.198Z,99.90
2017-07-26T04:57:32.856Z,99.90
2017-07-26T05:00:01.126Z,99.90
2017-07-26T05:02:28.626Z,99.90
2017-07-26T05:04:56.861Z,99.90
2017-07-26T05:07:24.357Z,99.90
2017-07-26T05:09:51.836Z,99.90
2017-07-26T05:12:19.336Z,99.90
2017-07-26T05:14:46.812Z,99.90
2017-07-26T05:17:15.086Z,99.90
2017-07-26T05:19:42.571Z,99.90
2017-07-26T05:22:10.053Z,99.90
2017-07-26T05:24:37.610Z,99.90
2017-07-26T05:27:05.081Z,99.90
2017-07-26T05:29:32.592Z,99.90
2017-07-26T05:32:00.083Z,99.90
2017-07-26T05:34:27.577Z,99.90
2017-07-26T05:36:55.052Z,99.90
2017-07-26T05:39:23.316Z,99.90
2017-07-26T05:41:50.805Z,99.90
2017-07-26T05:44:18.280Z,99.90
2017-07-26T05:46:45.783Z,99.90
2017-07-26T05:49:13.259Z,99.90
2017-07-26T05:51:40.735Z,99.90
2017-07-26T05:54:09.009Z,99.90
2017-07-26T05:56:37.252Z,99.90
2017-07-26T05:59:04.801Z,99.90
2017-07-26T06:01:32.280Z,99.90
2017-07-26T06:03:59.773Z,99.90
2017-07-26T06:06:27.264Z,99.90
2017-07-26T06:08:55.508Z,99.90
2017-07-26T06:11:23.019Z,99.90
2017-07-26T06:13:50.499Z,99.90
2017-07-26T06:16:18.106Z,99.90
2017-07-26T06:18:45.597Z,99.90
2017-07-26T06:21:13.111Z,99.90
2017-07-26T06:23:40.610Z,99.90
2017-07-26T06:26:08.119Z,99.90
2017-07-26T06:28:35.616Z,99.90
2017-07-26T06:31:03.099Z,99.90
2017-07-26T06:33:30.581Z,99.90
2017-07-26T06:35:58.841Z,99.90
2017-07-26T06:38:27.086Z,99.90
2017-07-26T06:40:54.580Z,99.90
2017-07-26T06:43:22.831Z,99.90
2017-07-26T06:45:50.323Z,99.90
2017-07-26T06:48:18.596Z,99.90
2017-07-26T06:50:46.856Z,99.90
2017-07-26T06:53:14.353Z,99.90
2017-07-26T06:55:41.826Z,99.90
2017-07-26T06:58:09.297Z,99.90
2017-07-26T07:00:36.791Z,99.90
2017-07-26T07:03:04.274Z,99.90
2017-07-26T07:05:32.532Z,99.90
2017-07-26T07:08:00.772Z,99.90
2017-07-26T07:10:28.273Z,99.90
2017-07-26T07:12:56.529Z,99.90
2017-07-26T07:15:24.009Z,99.90
2017-07-26T07:17:52.292Z,99.90
2017-07-26T07:20:20.536Z,99.90
2017-07-26T07:22:48.064Z,99.90
2017-07-26T07:25:15.552Z,99.90
2017-07-26T07:27:43.032Z,99.90
2017-07-26T07:30:11.306Z,99.90
2017-07-26T07:32:39.555Z,99.90
2017-07-26T07:35:07.087Z,99.90
2017-07-26T07:40:09.216Z,99.90
2017-07-26T07:42:36.696Z,99.90
2017-07-26T07:45:04.937Z,99.90
2017-07-26T07:47:32.447Z,99.90
2017-07-26T07:49:59.928Z,99.90
2017-07-26T07:52:27.437Z,99.90
2017-07-26T07:54:55.675Z,99.90
2017-07-26T07:57:23.156Z,99.90
2017-07-26T07:59:50.657Z,99.90
2017-07-26T08:02:18.145Z,99.90
2017-07-26T08:04:45.624Z,99.90
2017-07-26T08:07:13.117Z,99.90
2017-07-26T08:09:40.617Z,99.90
2017-07-26T08:12:08.166Z,99.90
2017-07-26T08:14:35.672Z,99.90
2017-07-26T08:17:03.181Z,99.90
2017-07-26T08:19:30.653Z,99.90
2017-07-26T08:21:58.197Z,99.90
2017-07-26T08:24:25.693Z,99.90
2017-07-26T08:26:53.215Z,99.90
2017-07-26T08:29:20.725Z,99.90
2017-07-26T08:31:48.197Z,99.90
2017-07-26T08:34:16.469Z,99.90
2017-07-26T08:36:44.717Z,99.90
2017-07-26T08:39:12.198Z,99.90
2017-07-26T08:41:40.472Z,99.90
2017-07-26T08:44:08.714Z,99.90
2017-07-26T08:46:36.219Z,99.90
2017-07-26T08:49:04.469Z,99.90
2017-07-26T08:51:31.959Z,99.90
2017-07-26T08:53:59.464Z,99.90
2017-07-26T08:56:26.945Z,99.90
2017-07-26T08:58:54.447Z,99.90
2017-07-26T09:01:21.923Z,99.90
2017-07-26T09:03:49.409Z,99.90
2017-07-26T09:06:16.905Z,99.90
2017-07-26T09:08:45.181Z,99.90
2017-07-26T09:11:13.436Z,99.90
2017-07-26T09:13:40.909Z,99.90
2017-07-26T09:16:09.173Z,99.90
2017-07-26T09:18:36.644Z,99.90
2017-07-26T09:21:04.896Z,99.90
2017-07-26T09:23:32.370Z,99.90
2017-07-26T09:26:00.637Z,99.90
2017-07-26T09:28:28.899Z,99.90
2017-07-26T09:30:56.372Z,99.90
2017-07-26T09:33:23.871Z,99.90
2017-07-26T09:35:51.344Z,99.90
2017-07-26T09:38:18.814Z,99.90
2017-07-26T09:40:46.312Z,99.90
2017-07-26T09:43:14.560Z,99.90
2017-07-26T09:45:42.092Z,99.90
2017-07-26T09:48:09.653Z,99.90
2017-07-26T09:50:37.134Z,99.90
2017-07-26T09:53:04.636Z,99.90
2017-07-26T09:55:32.877Z,99.90
2017-07-26T09:58:01.169Z,99.90
2017-07-26T10:00:29.416Z,99.90
2017-07-26T10:02:57.162Z,99.90
2017-07-26T10:05:24.722Z,99.90
2017-07-26T10:07:52.216Z,99.90
2017-07-26T10:10:19.691Z,99.90
2017-07-26T10:12:47.945Z,99.90
2017-07-26T10:15:15.446Z,99.90
2017-07-26T10:17:42.933Z,99.90
2017-07-26T10:20:10.420Z,99.90
2017-07-26T10:22:37.915Z,99.90
2017-07-26T10:25:06.173Z,99.90
2017-07-26T10:27:34.448Z,99.90
2017-07-26T10:30:02.703Z,99.90
2017-07-26T10:32:30.194Z,99.90
2017-07-26T10:34:58.464Z,99.90
2017-07-26T10:37:27.295Z,99.90
2017-07-26T10:39:54.797Z,99.90
2017-07-26T10:42:22.273Z,99.90
2017-07-26T10:44:50.560Z,99.90
2017-07-26T10:47:18.158Z,99.90
2017-07-26T10:49:45.661Z,99.90
2017-07-26T10:52:13.145Z,99.90
2017-07-26T10:54:41.397Z,99.90
2017-07-26T10:57:09.662Z,99.90
2017-07-26T10:59:37.161Z,99.90
2017-07-26T11:02:04.662Z,99.90
2017-07-26T11:04:32.140Z,99.70
2017-07-26T11:06:59.656Z,99.40
2017-07-26T11:09:27.128Z,99.90
2017-07-26T11:11:54.647Z,99.40
2017-07-26T11:14:22.136Z,97.60
2017-07-26T11:16:49.648Z,96.50
2017-07-26T11:19:17.909Z,96.70
2017-07-26T11:21:45.449Z,96.60
2017-07-26T11:24:12.967Z,97.90
2017-07-26T11:26:40.453Z,96.60
2017-07-26T11:29:07.953Z,96.20
2017-07-26T11:31:35.438Z,96.60
2017-07-26T11:34:02.917Z,97.70
2017-07-26T11:36:30.423Z,96.90
2017-07-26T11:38:57.909Z,97.20
2017-07-26T11:41:25.416Z,98.00
2017-07-26T11:43:52.921Z,97.80
2017-07-26T11:46:21.163Z,99.60
2017-07-26T11:48:48.670Z,99.60
2017-07-26T11:51:16.160Z,98.20
2017-07-26T11:53:43.650Z,99.20
2017-07-26T11:56:11.173Z,99.90
2017-07-26T11:58:38.639Z,99.70
2017-07-26T12:01:06.144Z,99.90
2017-07-26T12:03:33.648Z,99.90
2017-07-26T12:06:01.125Z,99.90
2017-07-26T12:08:28.606Z,99.90
2017-07-26T12:10:56.099Z,99.20
2017-07-26T12:13:24.364Z,98.50
2017-07-26T12:15:52.638Z,96.90
2017-07-26T12:18:20.112Z,96.60
2017-07-26T12:20:48.401Z,97.50
2017-07-26T12:23:15.889Z,97.50
2017-07-26T12:25:43.398Z,97.60
2017-07-26T12:28:11.664Z,96.50
2017-07-26T12:30:39.141Z,96.40
2017-07-26T12:33:07.459Z,94.40
2017-07-26T12:35:35.019Z,94.60
2017-07-26T12:38:02.517Z,94.70
2017-07-26T12:40:30.036Z,96.20
2017-07-26T12:42:57.527Z,96.10
2017-07-26T12:45:25.027Z,96.60
2017-07-26T12:47:52.509Z,96.00
2017-07-26T12:50:20.013Z,95.20
2017-07-26T12:52:47.497Z,96.40
2017-07-26T12:55:15.743Z,97.70
2017-07-26T12:57:43.262Z,97.60
2017-07-26T13:00:10.777Z,98.70
2017-07-26T13:02:39.108Z,99.60
2017-07-26T13:05:06.593Z,99.60
2017-07-26T13:07:34.087Z,99.90
2017-07-26T13:10:01.565Z,99.90
2017-07-26T13:12:29.088Z,99.90
2017-07-26T13:14:57.337Z,99.90
2017-07-26T13:17:24.825Z,99.90
2017-07-26T13:19:53.090Z,99.90
2017-07-26T13:22:20.563Z,99.90
2017-07-26T13:24:48.808Z,99.90
2017-07-26T13:27:16.305Z,99.90
2017-07-26T13:29:43.784Z,99.90
2017-07-26T13:32:11.290Z,99.30
2017-07-26T13:34:38.773Z,96.90
2017-07-26T13:37:07.031Z,96.80
2017-07-26T13:39:35.297Z,96.30
2017-07-26T13:42:02.792Z,96.50
2017-07-26T13:44:30.277Z,96.40
2017-07-26T13:46:58.529Z,96.30
2017-07-26T13:49:26.029Z,95.90
2017-07-26T13:51:53.524Z,94.80
2017-07-26T13:54:21.025Z,92.40
2017-07-26T13:56:49.271Z,91.10
2017-07-26T13:59:16.767Z,91.10
2017-07-26T14:01:45.015Z,89.00
2017-07-26T14:04:12.489Z,88.90
2017-07-26T14:06:39.999Z,89.30
2017-07-26T14:09:07.477Z,89.40
2017-07-26T14:11:34.987Z,89.00
2017-07-26T14:14:03.310Z,90.70
2017-07-26T14:16:30.799Z,90.60
2017-07-26T14:18:58.342Z,90.70
2017-07-26T14:21:25.843Z,90.80
2017-07-26T14:23:54.112Z,90.90
2017-07-26T14:26:21.593Z,90.90
2017-07-26T14:28:49.108Z,91.60
2017-07-26T14:31:17.486Z,91.40
2017-07-26T14:33:45.003Z,91.60
2017-07-26T14:36:12.509Z,91.30
2017-07-26T14:38:39.990Z,90.80
2017-07-26T14:41:08.275Z,91.00
2017-07-26T14:43:36.551Z,90.80
2017-07-26T14:46:04.071Z,90.80
2017-07-26T14:48:31.554Z,89.70
2017-07-26T14:50:59.821Z,85.90
2017-07-26T14:53:27.387Z,85.90
2017-07-26T14:55:54.900Z,82.10
2017-07-26T14:58:22.395Z,82.60
2017-07-26T15:00:49.907Z,78.60
2017-07-26T15:03:17.435Z,79.30
2017-07-26T15:05:45.713Z,82.60
2017-07-26T15:08:13.975Z,82.10
2017-07-26T15:10:42.302Z,79.40
2017-07-26T15:13:09.829Z,79.30
2017-07-26T15:15:38.099Z,80.10
2017-07-26T15:18:06.381Z,78.40
2017-07-26T15:20:34.647Z,79.50
2017-07-26T15:23:03.290Z,79.60
2017-07-26T15:25:30.785Z,77.80
2017-07-26T15:27:59.092Z,78.10
2017-07-26T15:30:26.608Z,78.00
2017-07-26T15:32:54.085Z,79.20
2017-07-26T15:35:22.320Z,77.10
2017-07-26T15:37:49.817Z,77.00
2017-07-26T15:40:17.293Z,79.00
2017-07-26T15:42:45.552Z,76.70
2017-07-26T15:45:13.809Z,78.20
2017-07-26T15:47:41.317Z,78.30
2017-07-26T15:50:08.808Z,78.60
2017-07-26T15:52:36.347Z,78.30
2017-07-26T15:55:03.841Z,76.60
2017-07-26T15:57:32.175Z,76.80
2017-07-26T15:59:59.664Z,76.60
2017-07-26T16:02:27.173Z,72.70
2017-07-26T16:04:55.415Z,71.80
2017-07-26T16:07:22.918Z,71.70
2017-07-26T16:09:50.400Z,71.80
2017-07-26T16:12:17.868Z,73.50
2017-07-26T16:14:45.380Z,74.70
2017-07-26T16:17:12.867Z,73.60
2017-07-26T16:19:40.353Z,73.60
2017-07-26T16:22:07.846Z,72.30
2017-07-26T16:24:35.344Z,72.60
2017-07-26T16:27:02.821Z,72.40
2017-07-26T16:29:30.348Z,71.50
2017-07-26T16:31:57.835Z,72.00
2017-07-26T16:34:25.320Z,71.60
2017-07-26T16:36:52.836Z,73.20
2017-07-26T16:39:20.310Z,71.50
2017-07-26T16:41:47.813Z,72.50
2017-07-26T16:44:15.295Z,72.20
2017-07-26T16:46:42.808Z,71.50
2017-07-26T16:49:10.298Z,72.70
2017-07-26T16:51:37.773Z,71.30
2017-07-26T16:54:05.281Z,68.90
2017-07-26T16:56:32.756Z,70.40
2017-07-26T16:59:01.005Z,70.10
2017-07-26T17:01:28.512Z,69.20
2017-07-26T17:03:56.740Z,64.20
2017-07-26T17:06:24.240Z,64.20
2017-07-26T17:08:52.481Z,64.90
2017-07-26T17:11:19.966Z,64.80
2017-07-26T17:13:48.237Z,64.80
2017-07-26T17:16:16.612Z,64.80
2017-07-26T17:18:44.767Z,66.60
2017-07-26T17:21:12.757Z,69.50
2017-07-26T17:23:41.541Z,72.60
2017-07-26T17:26:09.910Z,71.70
2017-07-26T17:28:37.911Z,71.00
2017-07-26T17:31:06.791Z,70.60
2017-07-26T17:33:35.716Z,72.20
2017-07-26T17:36:04.338Z,72.10
2017-07-26T17:38:32.734Z,72.90
2017-07-26T17:41:10.423Z,71.50
2017-07-26T17:43:39.533Z,71.40
2017-07-26T17:46:07.931Z,72.80
2017-07-26T17:48:37.801Z,71.80
2017-07-26T17:51:06.015Z,71.60
2017-07-26T17:53:34.669Z,73.30
2017-07-26T17:56:03.172Z,73.30
2017-07-26T17:58:31.560Z,72.60
2017-07-26T18:00:59.962Z,71.60
2017-07-26T18:03:28.603Z,71.50
2017-07-26T18:05:56.075Z,71.40
2017-07-26T18:08:23.583Z,72.40
2017-07-26T18:10:54.372Z,71.70
2017-07-26T18:13:23.005Z,71.90
2017-07-26T18:15:50.531Z,72.40
2017-07-26T18:18:19.022Z,73.40
2017-07-26T18:20:46.911Z,74.20
2017-07-26T18:23:14.673Z,74.60
2017-07-26T18:25:44.234Z,75.60
2017-07-26T18:28:13.895Z,76.20
2017-07-26T18:30:41.476Z,76.60
2017-07-26T18:33:12.856Z,77.20
2017-07-26T18:35:42.252Z,78.30
2017-07-26T18:38:10.535Z,78.30
2017-07-26T18:40:41.039Z,79.30
2017-07-26T18:43:10.616Z,79.20
2017-07-26T18:45:39.364Z,80.40
2017-07-26T18:48:08.493Z,80.60
2017-07-26T18:50:38.015Z,81.00
2017-07-26T18:53:06.516Z,81.20
2017-07-26T18:55:34.099Z,81.70
2017-07-26T18:58:02.888Z,82.60
2017-07-26T19:00:32.526Z,84.20
2017-07-26T19:03:02.221Z,84.20
2017-07-26T19:05:29.796Z,84.40
2017-07-26T19:07:57.424Z,85.20
2017-07-26T19:10:25.757Z,86.10
2017-07-26T19:12:53.369Z,86.10
2017-07-26T19:15:22.305Z,87.50
2017-07-26T19:17:50.554Z,87.50
2017-07-26T19:20:18.564Z,87.40
2017-07-26T19:22:46.160Z,88.10
2017-07-26T19:25:13.694Z,87.50
2017-07-26T19:27:41.487Z,87.30
2017-07-26T19:30:09.783Z,87.30
2017-07-26T19:32:38.126Z,87.30
2017-07-26T19:35:06.907Z,88.10
2017-07-26T19:37:36.175Z,87.80
2017-07-26T19:40:05.903Z,89.00
2017-07-26T19:42:34.172Z,88.90
2017-07-26T19:45:02.936Z,89.00
2017-07-26T19:47:30.475Z,89.40
2017-07-26T19:49:58.830Z,90.00
2017-07-26T19:52:26.318Z,90.00
2017-07-26T19:54:54.590Z,90.40
2017-07-26T19:57:22.834Z,90.70
2017-07-26T19:59:50.344Z,90.60
2017-07-26T20:02:17.834Z,90.60
2017-07-26T20:04:45.333Z,91.00
2017-07-26T20:07:13.625Z,91.10
2017-07-26T20:09:41.868Z,91.30
2017-07-26T20:12:09.388Z,91.30
2017-07-26T20:14:36.865Z,91.10
2017-07-26T20:17:04.381Z,91.20
2017-07-26T20:19:32.653Z,91.40
2017-07-26T20:22:00.897Z,91.40
2017-07-26T20:24:28.526Z,91.40
2017-07-26T20:26:56.000Z,91.70
2017-07-26T20:29:23.479Z,91.60
2017-07-26T20:31:50.976Z,91.40
2017-07-26T20:34:18.561Z,91.70
2017-07-26T20:36:46.119Z,92.20
2017-07-26T20:39:13.639Z,92.50
2017-07-26T20:41:41.162Z,92.80
2017-07-26T20:44:08.638Z,92.90
2017-07-26T20:46:36.110Z,93.20
2017-07-26T20:49:04.376Z,93.60
2017-07-26T20:51:31.919Z,93.50
2017-07-26T20:53:59.422Z,93.80
2017-07-26T20:56:26.896Z,94.80
2017-07-26T20:58:54.388Z,95.00
2017-07-26T21:01:21.925Z,95.40
2017-07-26T21:03:49.399Z,95.90
2017-07-26T21:06:16.914Z,95.90
2017-07-26T21:08:44.404Z,95.70
2017-07-26T21:11:11.893Z,95.70
2017-07-26T21:13:39.372Z,95.90
2017-07-26T21:16:07.611Z,96.50
2017-07-26T21:18:35.111Z,96.40
2017-07-26T21:21:03.361Z,97.20
2017-07-26T21:23:30.872Z,97.20
2017-07-26T21:25:58.342Z,97.20
2017-07-26T21:28:25.841Z,97.00
2017-07-26T21:30:53.377Z,96.20
2017-07-26T21:33:20.865Z,95.60
2017-07-26T21:35:48.376Z,95.20
2017-07-26T21:38:15.851Z,94.70
2017-07-26T21:40:43.371Z,94.60
2017-07-26T21:43:10.866Z,95.10
2017-07-26T21:45:38.376Z,95.20
2017-07-26T21:48:05.863Z,95.60
2017-07-26T21:50:33.359Z,96.30
2017-07-26T21:53:00.914Z,96.00
2017-07-26T21:55:28.559Z,96.60
2017-07-26T21:57:56.049Z,96.80
2017-07-26T22:00:23.524Z,96.30
2017-07-26T22:02:51.796Z,97.10
2017-07-26T22:05:20.045Z,97.50
2017-07-26T22:07:47.542Z,97.50
2017-07-26T22:10:15.812Z,98.50
2017-07-26T22:12:44.089Z,98.10
2017-07-26T22:15:12.356Z,98.40
2017-07-26T22:17:40.595Z,99.90
2017-07-26T22:20:08.090Z,99.90
2017-07-26T22:22:36.348Z,99.90
2017-07-26T22:25:03.874Z,99.90
2017-07-26T22:27:31.376Z,99.90
2017-07-26T22:29:58.876Z,99.90
2017-07-26T22:32:26.400Z,99.90
2017-07-26T22:34:54.665Z,99.40
2017-07-26T22:37:22.136Z,99.40
2017-07-26T22:39:50.405Z,97.80
2017-07-26T22:42:17.883Z,97.70
2017-07-26T22:44:46.141Z,96.70
2017-07-26T22:47:14.389Z,96.50
2017-07-26T22:49:41.884Z,96.60
2017-07-26T22:52:10.137Z,95.60
2017-07-26T22:54:37.622Z,95.50
2017-07-26T22:57:05.884Z,95.20
2017-07-26T22:59:33.361Z,95.20
2017-07-26T23:02:01.620Z,94.70
2017-07-26T23:04:29.097Z,94.70
2017-07-26T23:06:56.622Z,95.10
2017-07-26T23:09:24.100Z,95.30
2017-07-26T23:11:52.353Z,96.00
2017-07-26T23:14:19.853Z,95.90
2017-07-26T23:16:48.096Z,96.20
2017-07-26T23:19:15.605Z,96.20
2017-07-26T23:21:43.083Z,96.50
2017-07-26T23:24:10.580Z,96.60
2017-07-26T23:26:38.821Z,97.40
2017-07-26T23:29:06.300Z,97.40
2017-07-26T23:31:33.823Z,97.60
2017-07-26T23:34:01.288Z,97.80
2017-07-26T23:36:28.801Z,97.60
2017-07-26T23:38:57.039Z,97.40
2017-07-26T23:41:24.535Z,97.30
2017-07-26T23:43:52.784Z,97.40
2017-07-26T23:46:20.256Z,97.30
2017-07-26T23:48:47.762Z,97.40
2017-07-26T23:51:15.253Z,97.60
2017-07-26T23:53:42.746Z,97.70
2017-07-26T23:56:10.992Z,97.70
2017-07-26T23:58:38.466Z,97.60
